sensor_id;sensor_type;location;lat;lon;timestamp;P1;durP1;ratioP1;P2;durP2;ratioP2
37483;SDS011;23337;52.212;9.926;2022-10-17T00:00:43;2.53;;;1.70;;
37483;SDS011;23337;52.212;9.926;2022-10-17T00:03:09;1.60;;;1.50;;
37483;SDS011;23337;52.212;9.926;2022-10-17T00:05:39;4.77;;;1.47;;
37483;SDS011;23337;52.212;9.926;2022-10-17T00:08:06;3.03;;;1.80;;
37483;SDS011;23337;52.212;9.926;2022-10-17T00:10:32;3.47;;;1.30;;
37483;SDS011;23337;52.212;9.926;2022-10-17T00:12:58;2.00;;;1.80;;
37483;SDS011;23337;52.212;9.926;2022-10-17T00:15:24;2.07;;;1.40;;
37483;SDS011;23337;52.212;9.926;2022-10-17T00:17:50;3.17;;;1.90;;
37483;SDS011;23337;52.212;9.926;2022-10-17T00:20:16;3.10;;;1.50;;
37483;SDS011;23337;52.212;9.926;2022-10-17T00:22:42;7.30;;;1.57;;
37483;SDS011;23337;52.212;9.926;2022-10-17T00:25:08;1.70;;;1.60;;
37483;SDS011;23337;52.212;9.926;2022-10-17T00:27:35;1.67;;;1.57;;
37483;SDS011;23337;52.212;9.926;2022-10-17T00:30:01;2.60;;;1.60;;
37483;SDS011;23337;52.212;9.926;2022-10-17T00:32:28;1.50;;;1.40;;
37483;SDS011;23337;52.212;9.926;2022-10-17T00:34:56;1.70;;;1.60;;
37483;SDS011;23337;52.212;9.926;2022-10-17T00:37:22;3.57;;;1.77;;
37483;SDS011;23337;52.212;9.926;2022-10-17T00:39:48;1.67;;;1.53;;
37483;SDS011;23337;52.212;9.926;2022-10-17T00:42:14;2.43;;;2.23;;
37483;SDS011;23337;52.212;9.926;2022-10-17T00:47:08;3.17;;;1.83;;
37483;SDS011;23337;52.212;9.926;2022-10-17T00:49:34;4.93;;;1.60;;
37483;SDS011;23337;52.212;9.926;2022-10-17T00:52:02;4.43;;;1.83;;
37483;SDS011;23337;52.212;9.926;2022-10-17T00:54:39;4.50;;;1.70;;
37483;SDS011;23337;52.212;9.926;2022-10-17T00:57:08;1.50;;;1.40;;
37483;SDS011;23337;52.212;9.926;2022-10-17T00:59:37;1.80;;;1.70;;
37483;SDS011;23337;52.212;9.926;2022-10-17T01:02:05;1.50;;;1.40;;
37483;SDS011;23337;52.212;9.926;2022-10-17T01:04:32;3.13;;;1.90;;
37483;SDS011;23337;52.212;9.926;2022-10-17T01:06:58;5.13;;;1.70;;
37483;SDS011;23337;52.212;9.926;2022-10-17T01:09:24;2.20;;;1.57;;
37483;SDS011;23337;52.212;9.926;2022-10-17T01:14:42;4.30;;;1.70;;
37483;SDS011;23337;52.212;9.926;2022-10-17T01:22:21;4.20;;;1.90;;
37483;SDS011;23337;52.212;9.926;2022-10-17T01:32:45;2.73;;;1.93;;
37483;SDS011;23337;52.212;9.926;2022-10-17T01:42:36;2.37;;;2.17;;
37483;SDS011;23337;52.212;9.926;2022-10-17T01:45:09;1.73;;;1.63;;
37483;SDS011;23337;52.212;9.926;2022-10-17T01:47:37;3.53;;;1.83;;
37483;SDS011;23337;52.212;9.926;2022-10-17T01:50:05;3.40;;;1.97;;
37483;SDS011;23337;52.212;9.926;2022-10-17T01:52:34;2.77;;;1.83;;
37483;SDS011;23337;52.212;9.926;2022-10-17T01:55:07;3.00;;;1.20;;
37483;SDS011;23337;52.212;9.926;2022-10-17T01:57:35;3.83;;;1.70;;
37483;SDS011;23337;52.212;9.926;2022-10-17T02:00:03;4.57;;;2.10;;
37483;SDS011;23337;52.212;9.926;2022-10-17T02:02:30;2.17;;;1.97;;
37483;SDS011;23337;52.212;9.926;2022-10-17T02:04:57;2.10;;;1.70;;
37483;SDS011;23337;52.212;9.926;2022-10-17T02:07:23;2.93;;;2.50;;
37483;SDS011;23337;52.212;9.926;2022-10-17T02:09:49;4.07;;;2.33;;
37483;SDS011;23337;52.212;9.926;2022-10-17T02:15:05;3.23;;;2.13;;
37483;SDS011;23337;52.212;9.926;2022-10-17T02:20:02;3.50;;;1.93;;
37483;SDS011;23337;52.212;9.926;2022-10-17T02:22:38;2.07;;;1.33;;
37483;SDS011;23337;52.212;9.926;2022-10-17T02:25:09;2.30;;;1.57;;
37483;SDS011;23337;52.212;9.926;2022-10-17T02:32:43;2.00;;;1.70;;
37483;SDS011;23337;52.212;9.926;2022-10-17T02:35:13;2.07;;;1.87;;
37483;SDS011;23337;52.212;9.926;2022-10-17T02:37:40;2.23;;;1.53;;
37483;SDS011;23337;52.212;9.926;2022-10-17T02:40:08;2.83;;;1.67;;
37483;SDS011;23337;52.212;9.926;2022-10-17T02:42:35;6.47;;;2.13;;
37483;SDS011;23337;52.212;9.926;2022-10-17T02:45:02;3.07;;;2.00;;
37483;SDS011;23337;52.212;9.926;2022-10-17T02:47:35;4.37;;;1.77;;
37483;SDS011;23337;52.212;9.926;2022-10-17T02:50:02;1.97;;;1.73;;
37483;SDS011;23337;52.212;9.926;2022-10-17T02:52:45;2.73;;;2.07;;
37483;SDS011;23337;52.212;9.926;2022-10-17T02:55:29;2.30;;;1.50;;
37483;SDS011;23337;52.212;9.926;2022-10-17T02:58:02;1.97;;;1.87;;
37483;SDS011;23337;52.212;9.926;2022-10-17T03:00:30;4.47;;;1.87;;
37483;SDS011;23337;52.212;9.926;2022-10-17T03:02:56;2.23;;;1.53;;
37483;SDS011;23337;52.212;9.926;2022-10-17T03:05:23;3.00;;;1.80;;
37483;SDS011;23337;52.212;9.926;2022-10-17T03:07:50;2.20;;;1.80;;
37483;SDS011;23337;52.212;9.926;2022-10-17T03:10:16;3.17;;;2.33;;
37483;SDS011;23337;52.212;9.926;2022-10-17T03:12:42;3.00;;;1.90;;
37483;SDS011;23337;52.212;9.926;2022-10-17T03:15:09;1.70;;;1.60;;
37483;SDS011;23337;52.212;9.926;2022-10-17T03:17:35;2.00;;;1.80;;
37483;SDS011;23337;52.212;9.926;2022-10-17T03:20:01;2.70;;;1.63;;
37483;SDS011;23337;52.212;9.926;2022-10-17T03:22:27;2.07;;;1.87;;
37483;SDS011;23337;52.212;9.926;2022-10-17T03:24:53;1.70;;;1.60;;
37483;SDS011;23337;52.212;9.926;2022-10-17T03:27:19;3.40;;;1.93;;
37483;SDS011;23337;52.212;9.926;2022-10-17T03:29:45;2.63;;;1.93;;
37483;SDS011;23337;52.212;9.926;2022-10-17T03:32:11;3.07;;;1.80;;
37483;SDS011;23337;52.212;9.926;2022-10-17T03:34:37;2.57;;;1.93;;
37483;SDS011;23337;52.212;9.926;2022-10-17T03:37:03;2.33;;;1.87;;
37483;SDS011;23337;52.212;9.926;2022-10-17T03:39:29;5.10;;;2.23;;
37483;SDS011;23337;52.212;9.926;2022-10-17T03:41:55;2.00;;;1.70;;
37483;SDS011;23337;52.212;9.926;2022-10-17T03:44:21;2.67;;;1.73;;
37483;SDS011;23337;52.212;9.926;2022-10-17T03:46:47;3.20;;;1.90;;
37483;SDS011;23337;52.212;9.926;2022-10-17T03:49:13;2.07;;;1.63;;
37483;SDS011;23337;52.212;9.926;2022-10-17T03:51:39;2.87;;;1.63;;
37483;SDS011;23337;52.212;9.926;2022-10-17T03:54:05;2.93;;;1.70;;
37483;SDS011;23337;52.212;9.926;2022-10-17T03:56:31;3.17;;;1.63;;
37483;SDS011;23337;52.212;9.926;2022-10-17T03:58:57;3.07;;;1.77;;
37483;SDS011;23337;52.212;9.926;2022-10-17T04:01:23;3.80;;;1.90;;
37483;SDS011;23337;52.212;9.926;2022-10-17T04:03:49;2.70;;;1.60;;
37483;SDS011;23337;52.212;9.926;2022-10-17T04:06:15;3.23;;;1.70;;
37483;SDS011;23337;52.212;9.926;2022-10-17T04:08:41;3.00;;;2.00;;
37483;SDS011;23337;52.212;9.926;2022-10-17T04:11:08;2.37;;;1.60;;
37483;SDS011;23337;52.212;9.926;2022-10-17T04:13:34;2.77;;;1.57;;
37483;SDS011;23337;52.212;9.926;2022-10-17T04:16:01;5.23;;;2.43;;
37483;SDS011;23337;52.212;9.926;2022-10-17T04:18:28;2.00;;;1.73;;
37483;SDS011;23337;52.212;9.926;2022-10-17T04:20:54;1.70;;;1.60;;
37483;SDS011;23337;52.212;9.926;2022-10-17T04:23:20;1.60;;;1.50;;
37483;SDS011;23337;52.212;9.926;2022-10-17T04:25:46;2.60;;;1.80;;
37483;SDS011;23337;52.212;9.926;2022-10-17T04:28:12;3.80;;;1.47;;
37483;SDS011;23337;52.212;9.926;2022-10-17T04:30:38;2.57;;;1.83;;
37483;SDS011;23337;52.212;9.926;2022-10-17T04:33:04;6.30;;;2.03;;
37483;SDS011;23337;52.212;9.926;2022-10-17T04:35:30;2.50;;;1.80;;
37483;SDS011;23337;52.212;9.926;2022-10-17T04:37:56;3.10;;;1.53;;
37483;SDS011;23337;52.212;9.926;2022-10-17T04:40:22;3.23;;;1.73;;
37483;SDS011;23337;52.212;9.926;2022-10-17T04:42:48;2.93;;;1.83;;
37483;SDS011;23337;52.212;9.926;2022-10-17T04:45:16;3.60;;;2.50;;
37483;SDS011;23337;52.212;9.926;2022-10-17T04:47:42;2.83;;;2.30;;
37483;SDS011;23337;52.212;9.926;2022-10-17T04:50:08;2.17;;;1.97;;
37483;SDS011;23337;52.212;9.926;2022-10-17T04:52:34;3.63;;;2.27;;
37483;SDS011;23337;52.212;9.926;2022-10-17T04:55:04;2.80;;;2.50;;
37483;SDS011;23337;52.212;9.926;2022-10-17T04:57:32;4.30;;;2.53;;
37483;SDS011;23337;52.212;9.926;2022-10-17T04:59:58;3.83;;;2.20;;
37483;SDS011;23337;52.212;9.926;2022-10-17T05:02:24;4.27;;;2.43;;
37483;SDS011;23337;52.212;9.926;2022-10-17T05:04:50;3.53;;;2.20;;
37483;SDS011;23337;52.212;9.926;2022-10-17T05:07:16;2.90;;;2.47;;
37483;SDS011;23337;52.212;9.926;2022-10-17T05:09:42;2.97;;;2.50;;
37483;SDS011;23337;52.212;9.926;2022-10-17T05:12:08;3.33;;;2.83;;
37483;SDS011;23337;52.212;9.926;2022-10-17T05:14:34;5.33;;;2.63;;
37483;SDS011;23337;52.212;9.926;2022-10-17T05:17:00;4.97;;;2.90;;
37483;SDS011;23337;52.212;9.926;2022-10-17T05:19:26;3.37;;;2.30;;
37483;SDS011;23337;52.212;9.926;2022-10-17T05:21:51;4.07;;;2.20;;
37483;SDS011;23337;52.212;9.926;2022-10-17T05:24:17;4.47;;;2.67;;
37483;SDS011;23337;52.212;9.926;2022-10-17T05:26:43;2.70;;;2.30;;
37483;SDS011;23337;52.212;9.926;2022-10-17T05:29:09;4.60;;;2.47;;
37483;SDS011;23337;52.212;9.926;2022-10-17T05:31:35;3.87;;;2.53;;
37483;SDS011;23337;52.212;9.926;2022-10-17T05:34:01;8.87;;;2.50;;
37483;SDS011;23337;52.212;9.926;2022-10-17T05:36:27;4.87;;;2.03;;
37483;SDS011;23337;52.212;9.926;2022-10-17T05:38:53;3.17;;;2.07;;
37483;SDS011;23337;52.212;9.926;2022-10-17T05:41:19;3.30;;;1.80;;
37483;SDS011;23337;52.212;9.926;2022-10-17T05:43:45;1.60;;;1.40;;
37483;SDS011;23337;52.212;9.926;2022-10-17T05:46:11;4.20;;;1.70;;
37483;SDS011;23337;52.212;9.926;2022-10-17T05:48:37;4.57;;;1.60;;
37483;SDS011;23337;52.212;9.926;2022-10-17T05:51:05;2.90;;;2.13;;
37483;SDS011;23337;52.212;9.926;2022-10-17T05:53:32;6.43;;;1.93;;
37483;SDS011;23337;52.212;9.926;2022-10-17T05:55:59;6.23;;;2.07;;
37483;SDS011;23337;52.212;9.926;2022-10-17T05:58:26;4.17;;;1.87;;
37483;SDS011;23337;52.212;9.926;2022-10-17T06:00:56;2.60;;;1.60;;
37483;SDS011;23337;52.212;9.926;2022-10-17T06:03:22;5.87;;;2.40;;
37483;SDS011;23337;52.212;9.926;2022-10-17T06:05:48;3.83;;;2.30;;
37483;SDS011;23337;52.212;9.926;2022-10-17T06:08:14;4.20;;;1.70;;
37483;SDS011;23337;52.212;9.926;2022-10-17T06:10:40;8.20;;;2.10;;
37483;SDS011;23337;52.212;9.926;2022-10-17T06:13:06;3.87;;;2.30;;
37483;SDS011;23337;52.212;9.926;2022-10-17T06:15:32;4.60;;;2.60;;
37483;SDS011;23337;52.212;9.926;2022-10-17T06:17:58;2.80;;;2.10;;
37483;SDS011;23337;52.212;9.926;2022-10-17T06:20:24;3.27;;;2.10;;
37483;SDS011;23337;52.212;9.926;2022-10-17T06:22:50;2.63;;;2.20;;
37483;SDS011;23337;52.212;9.926;2022-10-17T06:25:16;2.27;;;1.93;;
37483;SDS011;23337;52.212;9.926;2022-10-17T06:27:42;3.90;;;2.03;;
37483;SDS011;23337;52.212;9.926;2022-10-17T06:30:08;3.90;;;2.73;;
37483;SDS011;23337;52.212;9.926;2022-10-17T06:32:34;4.33;;;2.53;;
37483;SDS011;23337;52.212;9.926;2022-10-17T06:35:00;3.40;;;2.57;;
37483;SDS011;23337;52.212;9.926;2022-10-17T06:37:29;4.50;;;2.60;;
37483;SDS011;23337;52.212;9.926;2022-10-17T06:39:55;2.73;;;2.47;;
37483;SDS011;23337;52.212;9.926;2022-10-17T06:42:21;3.67;;;2.30;;
37483;SDS011;23337;52.212;9.926;2022-10-17T06:44:47;5.03;;;3.30;;
37483;SDS011;23337;52.212;9.926;2022-10-17T06:47:13;5.07;;;3.00;;
37483;SDS011;23337;52.212;9.926;2022-10-17T06:49:39;3.03;;;2.30;;
37483;SDS011;23337;52.212;9.926;2022-10-17T06:52:05;8.07;;;2.77;;
37483;SDS011;23337;52.212;9.926;2022-10-17T06:54:31;5.13;;;3.23;;
37483;SDS011;23337;52.212;9.926;2022-10-17T06:56:57;3.03;;;2.40;;
37483;SDS011;23337;52.212;9.926;2022-10-17T06:59:23;4.03;;;2.60;;
37483;SDS011;23337;52.212;9.926;2022-10-17T07:01:49;3.80;;;2.70;;
37483;SDS011;23337;52.212;9.926;2022-10-17T07:04:15;4.33;;;2.67;;
37483;SDS011;23337;52.212;9.926;2022-10-17T07:06:41;6.97;;;2.90;;
37483;SDS011;23337;52.212;9.926;2022-10-17T07:09:07;6.23;;;2.70;;
37483;SDS011;23337;52.212;9.926;2022-10-17T07:11:33;2.60;;;2.37;;
37483;SDS011;23337;52.212;9.926;2022-10-17T07:13:59;5.70;;;2.37;;
37483;SDS011;23337;52.212;9.926;2022-10-17T07:16:25;4.13;;;2.57;;
37483;SDS011;23337;52.212;9.926;2022-10-17T07:18:52;5.87;;;2.20;;
37483;SDS011;23337;52.212;9.926;2022-10-17T07:21:18;4.43;;;2.50;;
37483;SDS011;23337;52.212;9.926;2022-10-17T07:23:44;2.63;;;2.20;;
37483;SDS011;23337;52.212;9.926;2022-10-17T07:26:11;3.33;;;2.33;;
37483;SDS011;23337;52.212;9.926;2022-10-17T07:28:38;4.77;;;2.20;;
37483;SDS011;23337;52.212;9.926;2022-10-17T07:31:05;3.00;;;2.23;;
37483;SDS011;23337;52.212;9.926;2022-10-17T07:33:31;6.33;;;2.43;;
37483;SDS011;23337;52.212;9.926;2022-10-17T07:35:58;6.80;;;2.30;;
37483;SDS011;23337;52.212;9.926;2022-10-17T07:38:24;3.17;;;2.27;;
37483;SDS011;23337;52.212;9.926;2022-10-17T07:40:57;6.20;;;2.40;;
37483;SDS011;23337;52.212;9.926;2022-10-17T07:43:23;2.90;;;2.47;;
37483;SDS011;23337;52.212;9.926;2022-10-17T07:45:49;4.00;;;2.57;;
37483;SDS011;23337;52.212;9.926;2022-10-17T07:48:15;3.47;;;2.20;;
37483;SDS011;23337;52.212;9.926;2022-10-17T07:50:41;4.20;;;2.53;;
37483;SDS011;23337;52.212;9.926;2022-10-17T07:53:07;4.77;;;2.53;;
37483;SDS011;23337;52.212;9.926;2022-10-17T07:55:33;6.17;;;2.70;;
37483;SDS011;23337;52.212;9.926;2022-10-17T07:58:01;4.40;;;3.30;;
37483;SDS011;23337;52.212;9.926;2022-10-17T08:00:27;5.70;;;2.63;;
37483;SDS011;23337;52.212;9.926;2022-10-17T08:02:53;2.80;;;2.13;;
37483;SDS011;23337;52.212;9.926;2022-10-17T08:05:18;5.33;;;2.77;;
37483;SDS011;23337;52.212;9.926;2022-10-17T08:07:44;5.50;;;2.97;;
37483;SDS011;23337;52.212;9.926;2022-10-17T08:10:11;4.80;;;2.50;;
37483;SDS011;23337;52.212;9.926;2022-10-17T08:12:38;3.07;;;2.37;;
37483;SDS011;23337;52.212;9.926;2022-10-17T08:15:04;6.07;;;2.37;;
37483;SDS011;23337;52.212;9.926;2022-10-17T08:17:30;4.80;;;2.10;;
37483;SDS011;23337;52.212;9.926;2022-10-17T08:19:56;4.67;;;2.47;;
37483;SDS011;23337;52.212;9.926;2022-10-17T08:22:22;7.23;;;2.70;;
37483;SDS011;23337;52.212;9.926;2022-10-17T08:24:48;4.43;;;2.43;;
37483;SDS011;23337;52.212;9.926;2022-10-17T08:27:14;4.50;;;2.97;;
37483;SDS011;23337;52.212;9.926;2022-10-17T08:29:45;4.03;;;2.30;;
37483;SDS011;23337;52.212;9.926;2022-10-17T08:32:12;7.77;;;2.40;;
37483;SDS011;23337;52.212;9.926;2022-10-17T08:34:38;5.83;;;2.20;;
37483;SDS011;23337;52.212;9.926;2022-10-17T08:37:04;3.67;;;2.47;;
37483;SDS011;23337;52.212;9.926;2022-10-17T08:39:30;3.67;;;2.30;;
37483;SDS011;23337;52.212;9.926;2022-10-17T08:47:09;2.90;;;2.20;;
37483;SDS011;23337;52.212;9.926;2022-10-17T08:49:48;5.13;;;2.83;;
37483;SDS011;23337;52.212;9.926;2022-10-17T08:54:51;7.37;;;2.90;;
37483;SDS011;23337;52.212;9.926;2022-10-17T08:57:17;4.47;;;2.97;;
37483;SDS011;23337;52.212;9.926;2022-10-17T08:59:44;3.10;;;2.27;;
37483;SDS011;23337;52.212;9.926;2022-10-17T09:07:48;7.57;;;2.40;;
37483;SDS011;23337;52.212;9.926;2022-10-17T09:15:42;4.90;;;4.03;;
37483;SDS011;23337;52.212;9.926;2022-10-17T09:18:14;5.13;;;2.97;;
37483;SDS011;23337;52.212;9.926;2022-10-17T09:20:52;5.43;;;2.33;;
37483;SDS011;23337;52.212;9.926;2022-10-17T09:23:23;3.03;;;2.40;;
37483;SDS011;23337;52.212;9.926;2022-10-17T09:25:55;2.37;;;2.03;;
37483;SDS011;23337;52.212;9.926;2022-10-17T09:28:31;3.47;;;2.33;;
37483;SDS011;23337;52.212;9.926;2022-10-17T09:33:25;5.47;;;2.13;;
37483;SDS011;23337;52.212;9.926;2022-10-17T09:35:52;7.93;;;2.40;;
37483;SDS011;23337;52.212;9.926;2022-10-17T09:38:20;4.43;;;2.30;;
37483;SDS011;23337;52.212;9.926;2022-10-17T09:40:51;4.23;;;1.93;;
37483;SDS011;23337;52.212;9.926;2022-10-17T09:43:19;2.40;;;2.20;;
37483;SDS011;23337;52.212;9.926;2022-10-17T09:46:05;4.63;;;2.40;;
37483;SDS011;23337;52.212;9.926;2022-10-17T09:48:37;3.93;;;2.10;;
37483;SDS011;23337;52.212;9.926;2022-10-17T09:51:05;3.13;;;2.10;;
37483;SDS011;23337;52.212;9.926;2022-10-17T09:53:50;4.13;;;1.93;;
37483;SDS011;23337;52.212;9.926;2022-10-17T09:56:18;3.93;;;2.03;;
37483;SDS011;23337;52.212;9.926;2022-10-17T10:01:29;3.63;;;2.20;;
37483;SDS011;23337;52.212;9.926;2022-10-17T10:06:37;4.40;;;2.27;;
37483;SDS011;23337;52.212;9.926;2022-10-17T10:09:03;6.13;;;2.47;;
37483;SDS011;23337;52.212;9.926;2022-10-17T10:11:50;3.43;;;2.20;;
37483;SDS011;23337;52.212;9.926;2022-10-17T10:16:57;3.17;;;2.00;;
37483;SDS011;23337;52.212;9.926;2022-10-17T10:19:34;3.00;;;1.80;;
37483;SDS011;23337;52.212;9.926;2022-10-17T10:22:04;4.53;;;1.90;;
37483;SDS011;23337;52.212;9.926;2022-10-17T10:24:31;2.30;;;1.80;;
37483;SDS011;23337;52.212;9.926;2022-10-17T10:26:58;2.50;;;2.20;;
37483;SDS011;23337;52.212;9.926;2022-10-17T10:31:52;4.83;;;1.90;;
37483;SDS011;23337;52.212;9.926;2022-10-17T10:36:49;3.50;;;2.00;;
37483;SDS011;23337;52.212;9.926;2022-10-17T10:39:35;6.53;;;2.37;;
37483;SDS011;23337;52.212;9.926;2022-10-17T10:42:03;2.03;;;1.83;;
37483;SDS011;23337;52.212;9.926;2022-10-17T10:44:31;4.57;;;2.10;;
37483;SDS011;23337;52.212;9.926;2022-10-17T10:49:32;8.87;;;2.37;;
37483;SDS011;23337;52.212;9.926;2022-10-17T10:51:58;4.73;;;2.43;;
37483;SDS011;23337;52.212;9.926;2022-10-17T10:54:27;4.70;;;1.93;;
37483;SDS011;23337;52.212;9.926;2022-10-17T10:56:59;5.37;;;2.37;;
37483;SDS011;23337;52.212;9.926;2022-10-17T10:59:39;2.73;;;2.00;;
37483;SDS011;23337;52.212;9.926;2022-10-17T11:04:46;3.53;;;2.03;;
37483;SDS011;23337;52.212;9.926;2022-10-17T11:07:13;3.43;;;2.23;;
37483;SDS011;23337;52.212;9.926;2022-10-17T11:09:50;7.67;;;2.10;;
37483;SDS011;23337;52.212;9.926;2022-10-17T11:12:26;3.03;;;1.70;;
37483;SDS011;23337;52.212;9.926;2022-10-17T11:17:39;4.70;;;2.70;;
37483;SDS011;23337;52.212;9.926;2022-10-17T11:22:36;4.50;;;2.33;;
37483;SDS011;23337;52.212;9.926;2022-10-17T11:25:04;2.30;;;2.00;;
37483;SDS011;23337;52.212;9.926;2022-10-17T11:27:31;2.17;;;1.73;;
37483;SDS011;23337;52.212;9.926;2022-10-17T11:29:58;6.53;;;1.90;;
37483;SDS011;23337;52.212;9.926;2022-10-17T11:32:29;6.37;;;2.37;;
37483;SDS011;23337;52.212;9.926;2022-10-17T11:35:02;5.27;;;2.17;;
37483;SDS011;23337;52.212;9.926;2022-10-17T11:37:33;6.60;;;2.10;;
37483;SDS011;23337;52.212;9.926;2022-10-17T11:40:01;3.47;;;1.80;;
37483;SDS011;23337;52.212;9.926;2022-10-17T11:43:01;5.57;;;2.47;;
37483;SDS011;23337;52.212;9.926;2022-10-17T11:45:20;3.33;;;2.07;;
37483;SDS011;23337;52.212;9.926;2022-10-17T11:47:48;2.57;;;1.80;;
37483;SDS011;23337;52.212;9.926;2022-10-17T11:52:45;3.40;;;1.77;;
37483;SDS011;23337;52.212;9.926;2022-10-17T11:57:45;3.40;;;2.07;;
37483;SDS011;23337;52.212;9.926;2022-10-17T12:00:37;4.13;;;2.00;;
37483;SDS011;23337;52.212;9.926;2022-10-17T12:05:54;3.20;;;1.90;;
37483;SDS011;23337;52.212;9.926;2022-10-17T12:10:53;2.43;;;1.70;;
37483;SDS011;23337;52.212;9.926;2022-10-17T12:15:52;4.70;;;1.90;;
37483;SDS011;23337;52.212;9.926;2022-10-17T12:18:18;3.60;;;2.00;;
37483;SDS011;23337;52.212;9.926;2022-10-17T12:20:57;3.53;;;2.77;;
37483;SDS011;23337;52.212;9.926;2022-10-17T12:23:27;3.90;;;2.00;;
37483;SDS011;23337;52.212;9.926;2022-10-17T12:26:01;3.43;;;1.97;;
37483;SDS011;23337;52.212;9.926;2022-10-17T12:28:28;4.43;;;2.07;;
37483;SDS011;23337;52.212;9.926;2022-10-17T12:30:56;2.40;;;1.60;;
37483;SDS011;23337;52.212;9.926;2022-10-17T12:33:32;5.43;;;1.80;;
37483;SDS011;23337;52.212;9.926;2022-10-17T12:38:47;3.20;;;1.80;;
37483;SDS011;23337;52.212;9.926;2022-10-17T12:41:14;4.23;;;2.00;;
37483;SDS011;23337;52.212;9.926;2022-10-17T12:43:47;3.13;;;1.47;;
37483;SDS011;23337;52.212;9.926;2022-10-17T12:48:59;2.47;;;1.60;;
37483;SDS011;23337;52.212;9.926;2022-10-17T12:51:26;6.07;;;2.10;;
37483;SDS011;23337;52.212;9.926;2022-10-17T12:56:20;11.97;;;2.10;;
37483;SDS011;23337;52.212;9.926;2022-10-17T12:58:47;4.13;;;1.80;;
37483;SDS011;23337;52.212;9.926;2022-10-17T13:01:32;3.27;;;1.70;;
37483;SDS011;23337;52.212;9.926;2022-10-17T13:03:59;2.80;;;1.97;;
37483;SDS011;23337;52.212;9.926;2022-10-17T13:06:30;4.20;;;2.23;;
37483;SDS011;23337;52.212;9.926;2022-10-17T13:09:00;3.77;;;1.93;;
37483;SDS011;23337;52.212;9.926;2022-10-17T13:11:27;2.97;;;2.20;;
37483;SDS011;23337;52.212;9.926;2022-10-17T13:13:56;4.70;;;2.20;;
37483;SDS011;23337;52.212;9.926;2022-10-17T13:16:33;4.47;;;2.03;;
37483;SDS011;23337;52.212;9.926;2022-10-17T13:19:00;3.67;;;1.87;;
37483;SDS011;23337;52.212;9.926;2022-10-17T13:21:26;6.67;;;2.37;;
37483;SDS011;23337;52.212;9.926;2022-10-17T13:23:52;4.07;;;2.20;;
37483;SDS011;23337;52.212;9.926;2022-10-17T13:26:20;4.57;;;2.23;;
37483;SDS011;23337;52.212;9.926;2022-10-17T13:33:55;5.43;;;2.00;;
37483;SDS011;23337;52.212;9.926;2022-10-17T13:36:21;3.37;;;2.23;;
37483;SDS011;23337;52.212;9.926;2022-10-17T13:38:47;3.10;;;1.87;;
37483;SDS011;23337;52.212;9.926;2022-10-17T13:41:14;3.87;;;2.07;;
37483;SDS011;23337;52.212;9.926;2022-10-17T13:43:41;3.53;;;2.50;;
37483;SDS011;23337;52.212;9.926;2022-10-17T13:46:07;7.67;;;2.80;;
37483;SDS011;23337;52.212;9.926;2022-10-17T13:48:40;7.27;;;2.10;;
37483;SDS011;23337;52.212;9.926;2022-10-17T13:51:07;2.87;;;2.20;;
37483;SDS011;23337;52.212;9.926;2022-10-17T13:53:34;3.70;;;2.27;;
37483;SDS011;23337;52.212;9.926;2022-10-17T13:56:03;3.10;;;2.30;;
37483;SDS011;23337;52.212;9.926;2022-10-17T13:58:39;3.07;;;2.23;;
37483;SDS011;23337;52.212;9.926;2022-10-17T14:01:06;3.27;;;2.47;;
37483;SDS011;23337;52.212;9.926;2022-10-17T14:03:32;3.73;;;2.33;;
37483;SDS011;23337;52.212;9.926;2022-10-17T14:06:05;4.70;;;2.20;;
37483;SDS011;23337;52.212;9.926;2022-10-17T14:08:33;5.33;;;2.50;;
37483;SDS011;23337;52.212;9.926;2022-10-17T14:11:00;2.63;;;2.30;;
37483;SDS011;23337;52.212;9.926;2022-10-17T14:13:27;3.70;;;1.67;;
37483;SDS011;23337;52.212;9.926;2022-10-17T14:15:55;3.87;;;2.60;;
37483;SDS011;23337;52.212;9.926;2022-10-17T14:18:29;10.00;;;3.90;;
37483;SDS011;23337;52.212;9.926;2022-10-17T14:20:56;4.67;;;2.57;;
37483;SDS011;23337;52.212;9.926;2022-10-17T14:23:29;5.13;;;2.30;;
37483;SDS011;23337;52.212;9.926;2022-10-17T14:28:37;2.90;;;2.03;;
37483;SDS011;23337;52.212;9.926;2022-10-17T14:31:37;4.77;;;2.27;;
37483;SDS011;23337;52.212;9.926;2022-10-17T14:33:56;3.77;;;2.27;;
37483;SDS011;23337;52.212;9.926;2022-10-17T14:36:29;3.37;;;2.13;;
37483;SDS011;23337;52.212;9.926;2022-10-17T14:38:56;3.17;;;2.30;;
37483;SDS011;23337;52.212;9.926;2022-10-17T14:41:29;4.30;;;2.70;;
37483;SDS011;23337;52.212;9.926;2022-10-17T14:44:00;5.10;;;2.90;;
37483;SDS011;23337;52.212;9.926;2022-10-17T14:46:28;2.60;;;2.33;;
37483;SDS011;23337;52.212;9.926;2022-10-17T14:48:56;6.23;;;2.47;;
37483;SDS011;23337;52.212;9.926;2022-10-17T14:51:22;7.50;;;2.50;;
37483;SDS011;23337;52.212;9.926;2022-10-17T14:54:02;4.67;;;2.30;;
37483;SDS011;23337;52.212;9.926;2022-10-17T14:56:36;4.10;;;2.43;;
37483;SDS011;23337;52.212;9.926;2022-10-17T14:59:02;4.97;;;2.53;;
37483;SDS011;23337;52.212;9.926;2022-10-17T15:01:29;5.13;;;2.40;;
37483;SDS011;23337;52.212;9.926;2022-10-17T15:03:55;4.97;;;2.40;;
37483;SDS011;23337;52.212;9.926;2022-10-17T15:06:31;7.23;;;2.67;;
37483;SDS011;23337;52.212;9.926;2022-10-17T15:08:57;3.67;;;2.67;;
37483;SDS011;23337;52.212;9.926;2022-10-17T15:11:24;3.33;;;2.13;;
37483;SDS011;23337;52.212;9.926;2022-10-17T15:13:50;7.23;;;2.70;;
37483;SDS011;23337;52.212;9.926;2022-10-17T15:16:23;6.70;;;2.60;;
37483;SDS011;23337;52.212;9.926;2022-10-17T15:18:49;7.60;;;2.93;;
37483;SDS011;23337;52.212;9.926;2022-10-17T15:21:16;11.27;;;2.80;;
37483;SDS011;23337;52.212;9.926;2022-10-17T15:23:42;6.13;;;3.00;;
37483;SDS011;23337;52.212;9.926;2022-10-17T15:26:16;6.13;;;2.80;;
37483;SDS011;23337;52.212;9.926;2022-10-17T15:28:43;5.40;;;2.97;;
37483;SDS011;23337;52.212;9.926;2022-10-17T15:31:13;4.90;;;2.87;;
37483;SDS011;23337;52.212;9.926;2022-10-17T15:33:39;7.17;;;2.70;;
37483;SDS011;23337;52.212;9.926;2022-10-17T15:36:15;4.73;;;2.40;;
37483;SDS011;23337;52.212;9.926;2022-10-17T15:38:43;5.67;;;2.63;;
37483;SDS011;23337;52.212;9.926;2022-10-17T15:41:09;4.00;;;2.53;;
37483;SDS011;23337;52.212;9.926;2022-10-17T15:43:35;3.50;;;2.60;;
37483;SDS011;23337;52.212;9.926;2022-10-17T15:46:01;5.43;;;2.77;;
37483;SDS011;23337;52.212;9.926;2022-10-17T15:48:28;4.43;;;2.50;;
37483;SDS011;23337;52.212;9.926;2022-10-17T15:50:55;4.23;;;3.00;;
37483;SDS011;23337;52.212;9.926;2022-10-17T15:53:21;6.10;;;2.87;;
37483;SDS011;23337;52.212;9.926;2022-10-17T15:55:48;4.87;;;2.90;;
37483;SDS011;23337;52.212;9.926;2022-10-17T15:58:15;3.70;;;2.73;;
37483;SDS011;23337;52.212;9.926;2022-10-17T16:00:41;4.20;;;2.70;;
37483;SDS011;23337;52.212;9.926;2022-10-17T16:03:08;5.53;;;2.70;;
37483;SDS011;23337;52.212;9.926;2022-10-17T16:05:33;3.70;;;2.53;;
37483;SDS011;23337;52.212;9.926;2022-10-17T16:07:59;4.97;;;2.63;;
37483;SDS011;23337;52.212;9.926;2022-10-17T16:10:25;4.73;;;3.33;;
37483;SDS011;23337;52.212;9.926;2022-10-17T16:12:52;2.97;;;2.17;;
37483;SDS011;23337;52.212;9.926;2022-10-17T16:15:19;5.87;;;2.40;;
37483;SDS011;23337;52.212;9.926;2022-10-17T16:17:49;5.00;;;3.50;;
37483;SDS011;23337;52.212;9.926;2022-10-17T16:20:15;4.77;;;2.87;;
37483;SDS011;23337;52.212;9.926;2022-10-17T16:22:42;7.83;;;3.50;;
37483;SDS011;23337;52.212;9.926;2022-10-17T16:25:15;6.43;;;3.17;;
37483;SDS011;23337;52.212;9.926;2022-10-17T16:27:43;5.17;;;3.27;;
37483;SDS011;23337;52.212;9.926;2022-10-17T16:30:09;6.33;;;2.90;;
37483;SDS011;23337;52.212;9.926;2022-10-17T16:32:35;5.07;;;3.70;;
37483;SDS011;23337;52.212;9.926;2022-10-17T16:35:01;6.67;;;3.13;;
37483;SDS011;23337;52.212;9.926;2022-10-17T16:37:27;8.20;;;3.13;;
37483;SDS011;23337;52.212;9.926;2022-10-17T16:39:53;8.43;;;2.67;;
37483;SDS011;23337;52.212;9.926;2022-10-17T16:42:19;6.83;;;2.97;;